Time;durP1;ratioP1;P1;durP2;ratioP2;P2;SDS_P1;SDS_P2;PMS_P1;PMS_P2;Temp;Humidity;BMP_temperature;BMP_pressure;BME280_temperature;BME280_humidity;BME280_pressure;Samples;Min_cycle;Max_cycle;Signal;HPM_P1;HPM_P2
2023/08/19 00:01:07;;;;;;;33.70;30.17;;;23.20;99.90;;;;;;4976464;28;36517;-77
2023/08/19 00:03:33;;;;;;;34.38;30.02;;;23.20;99.90;;;;;;4978999;28;37727;-77
2023/08/19 00:06:05;;;;;;;38.10;33.13;;;23.10;99.90;;;;;;4979094;28;38238;-76
2023/08/19 00:08:31;;;;;;;34.67;31.05;;;23.10;99.90;;;;;;4978453;28;48382;-76
2023/08/19 00:10:57;;;;;;;36.30;32.40;;;23.00;99.90;;;;;;4981570;28;36626;-77
2023/08/19 00:13:24;;;;;;;38.60;34.40;;;23.00;99.90;;;;;;4995741;28;37655;-76
2023/08/19 00:15:50;;;;;;;37.67;33.70;;;23.00;99.90;;;;;;4989831;28;38549;-77
2023/08/19 00:18:16;;;;;;;36.35;32.60;;;23.00;99.90;;;;;;4987081;28;37962;-76
2023/08/19 00:20:43;;;;;;;36.97;33.00;;;23.00;99.90;;;;;;4983115;28;37467;-77
2023/08/19 00:23:09;;;;;;;38.05;33.42;;;23.00;99.90;;;;;;4978501;28;38522;-76
2023/08/19 00:25:35;;;;;;;36.25;32.35;;;23.00;99.90;;;;;;4973113;28;39154;-77
2023/08/19 00:28:04;;;;;;;37.53;33.13;;;23.00;99.90;;;;;;4979301;28;36752;-77
2023/08/19 00:30:30;;;;;;;37.17;33.13;;;23.00;99.90;;;;;;4976316;28;37357;-76
2023/08/19 00:32:56;;;;;;;35.63;31.77;;;23.10;99.90;;;;;;4979540;28;38348;-77
2023/08/19 00:35:22;;;;;;;36.42;32.47;;;23.10;99.90;;;;;;4989777;28;37580;-76
2023/08/19 00:37:48;;;;;;;36.33;31.60;;;23.10;99.90;;;;;;4988894;28;34981;-77
2023/08/19 00:40:15;;;;;;;35.60;31.73;;;23.10;99.90;;;;;;4978209;28;37268;-76
2023/08/19 00:42:41;;;;;;;33.40;29.85;;;23.20;99.90;;;;;;4978484;28;37537;-77
2023/08/19 00:45:09;;;;;;;39.60;33.63;;;23.20;99.90;;;;;;4980566;28;39188;-76
2023/08/19 00:47:36;;;;;;;37.72;33.58;;;23.20;99.90;;;;;;4982336;28;38320;-77
2023/08/19 00:50:05;;;;;;;34.90;31.23;;;23.20;99.90;;;;;;4977767;28;37280;-77
2023/08/19 00:52:32;;;;;;;35.22;29.38;;;23.20;99.90;;;;;;4976468;28;47348;-77
2023/08/19 00:54:58;;;;;;;36.30;30.85;;;23.20;99.90;;;;;;4982686;28;38044;-76
2023/08/19 00:57:24;;;;;;;33.60;29.92;;;23.20;99.90;;;;;;4978202;28;37877;-76
2023/08/19 00:59:51;;;;;;;35.05;31.25;;;23.20;99.90;;;;;;4980014;28;36593;-76
2023/08/19 01:02:17;;;;;;;33.92;30.35;;;23.20;99.90;;;;;;5397904;23;38455;-78
2023/08/19 01:04:43;;;;;;;36.70;32.67;;;23.30;99.90;;;;;;4990384;28;37716;-78
2023/08/19 01:07:23;;;;;;;31.65;28.40;;;23.20;99.90;;;;;;5004113;28;38555;-77
2023/08/19 01:09:56;;;;;;;35.28;31.02;;;23.20;99.90;;;;;;5000930;28;36327;-79
2023/08/19 01:12:33;;;;;;;37.95;31.85;;;23.20;99.90;;;;;;4995678;28;37867;-79
2023/08/19 01:15:06;;;;;;;32.55;29.15;;;23.20;99.90;;;;;;4994715;28;37276;-78
2023/08/19 01:17:34;;;;;;;37.03;32.70;;;23.20;99.90;;;;;;4998064;28;47017;-78
2023/08/19 01:20:00;;;;;;;42.97;33.03;;;23.20;99.90;;;;;;4996938;28;38645;-79
2023/08/19 01:22:56;;;;;;;35.35;31.73;;;23.20;99.90;;;;;;4998205;28;38808;-80
2023/08/19 01:25:23;;;;;;;34.15;30.50;;;23.10;99.90;;;;;;5001586;28;38543;-78
2023/08/19 01:27:49;;;;;;;35.00;31.27;;;23.20;99.90;;;;;;4999876;28;37985;-79
2023/08/19 01:30:15;;;;;;;34.30;30.58;;;23.10;99.90;;;;;;5002011;28;37320;-80
2023/08/19 01:32:43;;;;;;;35.03;31.25;;;23.10;99.90;;;;;;5000802;28;38627;-79
2023/08/19 01:35:14;;;;;;;33.95;30.40;;;23.10;99.90;;;;;;5002009;28;37479;-78
2023/08/19 01:37:53;;;;;;;37.00;32.63;;;23.10;99.90;;;;;;4996235;28;38374;-79
2023/08/19 01:40:21;;;;;;;36.63;32.63;;;23.10;99.90;;;;;;4995209;28;37309;-79
2023/08/19 01:42:49;;;;;;;37.30;31.20;;;23.00;99.90;;;;;;4996885;28;36611;-79
2023/08/19 01:45:16;;;;;;;37.28;31.17;;;23.10;99.90;;;;;;5003753;28;38438;-79
2023/08/19 01:47:42;;;;;;;33.58;30.13;;;23.10;99.90;;;;;;5007762;28;37864;-79
2023/08/19 01:50:09;;;;;;;37.33;33.47;;;23.10;99.90;;;;;;4998556;28;37769;-79
2023/08/19 01:52:36;;;;;;;34.17;30.50;;;23.10;99.90;;;;;;4991694;28;37490;-78
2023/08/19 01:55:02;;;;;;;37.85;33.80;;;23.00;99.90;;;;;;5012750;28;37212;-78
2023/08/19 01:57:28;;;;;;;38.15;33.85;;;23.10;99.90;;;;;;4992375;28;38248;-79
2023/08/19 01:59:55;;;;;;;35.17;31.38;;;23.10;99.90;;;;;;4992763;28;36190;-78
2023/08/19 02:02:22;;;;;;;36.88;32.63;;;23.00;99.90;;;;;;4997001;28;38933;-79
2023/08/19 02:04:48;;;;;;;34.88;31.20;;;23.00;99.90;;;;;;4996837;28;37176;-78
2023/08/19 02:07:14;;;;;;;36.13;32.35;;;23.10;99.90;;;;;;4998605;28;39121;-79
2023/08/19 02:09:41;;;;;;;39.25;34.53;;;23.00;99.90;;;;;;4997904;28;35356;-79
2023/08/19 02:12:07;;;;;;;37.53;33.45;;;23.00;99.90;;;;;;4991793;28;38862;-77
2023/08/19 02:14:34;;;;;;;38.10;32.85;;;23.10;99.90;;;;;;4998357;28;37652;-78
2023/08/19 02:17:00;;;;;;;35.88;32.08;;;23.10;99.90;;;;;;4999487;28;39117;-78
2023/08/19 02:19:26;;;;;;;34.70;30.92;;;23.10;99.90;;;;;;4997151;28;37444;-78
2023/08/19 02:21:52;;;;;;;33.33;29.05;;;23.10;99.90;;;;;;4998760;28;38641;-78
2023/08/19 02:24:18;;;;;;;37.60;33.55;;;23.10;99.90;;;;;;4997290;28;38047;-78
2023/08/19 02:26:45;;;;;;;36.08;32.22;;;23.10;99.90;;;;;;4997665;28;37896;-79
2023/08/19 02:29:11;;;;;;;35.60;31.80;;;23.10;99.90;;;;;;4997509;28;36238;-79
2023/08/19 02:31:37;;;;;;;39.83;32.80;;;23.10;99.90;;;;;;4995544;28;39500;-78
2023/08/19 02:34:04;;;;;;;36.35;32.03;;;23.00;99.90;;;;;;4996857;28;38930;-79
2023/08/19 02:36:31;;;;;;;39.53;32.53;;;23.00;99.90;;;;;;4997625;28;38324;-79
2023/08/19 02:38:58;;;;;;;35.35;31.73;;;23.10;99.90;;;;;;4998005;28;37773;-80
2023/08/19 02:41:24;;;;;;;35.60;31.85;;;23.10;99.90;;;;;;4992943;28;39451;-78
2023/08/19 02:43:51;;;;;;;39.03;33.47;;;23.10;99.90;;;;;;4993436;28;38263;-79
2023/08/19 02:46:17;;;;;;;35.60;30.65;;;23.10;99.90;;;;;;4994745;28;38460;-79
2023/08/19 02:48:43;;;;;;;40.45;34.80;;;23.00;99.90;;;;;;4994966;28;37896;-81
2023/08/19 02:51:09;;;;;;;37.85;33.78;;;22.90;99.90;;;;;;4991161;28;39782;-79
2023/08/19 02:53:35;;;;;;;35.42;31.63;;;22.90;99.90;;;;;;4993715;28;37131;-78
2023/08/19 02:56:05;;;;;;;39.33;32.42;;;22.90;99.90;;;;;;4996579;28;37096;-79
2023/08/19 02:58:31;;;;;;;43.15;36.67;;;22.80;99.90;;;;;;4993937;28;36521;-79
2023/08/19 03:00:57;;;;;;;35.17;29.17;;;22.80;99.90;;;;;;4994815;28;38331;-79
2023/08/19 03:03:23;;;;;;;42.78;35.97;;;22.80;99.90;;;;;;5004987;28;37482;-79
2023/08/19 03:05:49;;;;;;;38.75;33.20;;;22.70;99.90;;;;;;5006495;28;37702;-79
2023/08/19 03:08:16;;;;;;;37.72;33.67;;;22.70;99.90;;;;;;5000757;28;36412;-79
2023/08/19 03:10:42;;;;;;;37.22;33.20;;;22.70;99.90;;;;;;5001926;28;39325;-79
2023/08/19 03:13:09;;;;;;;38.20;34.10;;;22.60;99.90;;;;;;4991418;28;38043;-79
2023/08/19 03:15:37;;;;;;;37.92;33.17;;;22.60;99.90;;;;;;4994279;28;38409;-78
2023/08/19 03:18:04;;;;;;;36.78;32.78;;;22.70;99.90;;;;;;4996224;28;37229;-78
2023/08/19 03:20:30;;;;;;;36.60;32.60;;;22.70;99.90;;;;;;4997727;28;39648;-79
2023/08/19 03:22:56;;;;;;;38.60;32.58;;;22.70;99.90;;;;;;4994655;28;37041;-79
2023/08/19 03:25:22;;;;;;;38.70;33.80;;;22.70;99.90;;;;;;4997325;28;37149;-79
2023/08/19 03:27:48;;;;;;;35.45;29.98;;;22.80;99.90;;;;;;5003741;28;38526;-79
2023/08/19 03:30:14;;;;;;;43.05;34.00;;;22.70;99.90;;;;;;5003167;28;37666;-78
2023/08/19 03:32:40;;;;;;;34.88;31.27;;;22.80;99.90;;;;;;5004872;28;38089;-79
2023/08/19 03:35:07;;;;;;;37.45;32.72;;;22.80;99.90;;;;;;5006032;28;37284;-79
2023/08/19 03:37:33;;;;;;;34.90;30.63;;;22.80;99.90;;;;;;5009190;28;46775;-79
2023/08/19 03:39:59;;;;;;;39.05;33.35;;;22.80;99.90;;;;;;5008092;28;37613;-78
2023/08/19 03:42:25;;;;;;;37.33;30.80;;;22.80;99.90;;;;;;5003695;28;37790;-78
2023/08/19 03:44:51;;;;;;;36.35;29.60;;;22.80;99.90;;;;;;5005395;28;36981;-79
2023/08/19 03:47:18;;;;;;;34.60;30.90;;;22.80;99.90;;;;;;4992147;28;37507;-79
2023/08/19 03:49:44;;;;;;;36.90;30.50;;;22.80;99.90;;;;;;4996045;28;39791;-79
2023/08/19 03:52:10;;;;;;;34.60;30.83;;;22.70;99.90;;;;;;4997762;28;41461;-79
2023/08/19 03:54:36;;;;;;;31.10;27.80;;;22.80;99.90;;;;;;5004289;28;38202;-79
2023/08/19 03:57:03;;;;;;;34.28;30.77;;;22.90;99.90;;;;;;5000254;28;38578;-78
2023/08/19 03:59:29;;;;;;;41.88;32.92;;;22.80;99.90;;;;;;4999102;28;39762;-79
2023/08/19 04:01:55;;;;;;;39.70;29.67;;;22.90;99.90;;;;;;4997302;28;37831;-79
2023/08/19 04:04:21;;;;;;;31.27;27.90;;;22.90;99.90;;;;;;4995093;28;37246;-79
2023/08/19 04:06:47;;;;;;;35.38;31.60;;;22.80;99.90;;;;;;4999661;28;37950;-79
2023/08/19 04:09:13;;;;;;;33.70;30.10;;;22.80;99.90;;;;;;4998091;28;39075;-79
2023/08/19 04:11:40;;;;;;;30.88;27.50;;;22.80;99.90;;;;;;4999714;28;39237;-80
2023/08/19 04:14:06;;;;;;;32.58;29.02;;;22.80;99.90;;;;;;4998187;28;39067;-79
2023/08/19 04:16:32;;;;;;;32.33;29.00;;;22.80;99.90;;;;;;4995613;28;38005;-80
2023/08/19 04:18:59;;;;;;;32.28;27.75;;;22.80;99.90;;;;;;5000531;28;39114;-80
2023/08/19 04:21:25;;;;;;;31.95;28.75;;;22.80;99.90;;;;;;4995308;28;37264;-79
2023/08/19 04:23:51;;;;;;;29.00;26.05;;;22.80;99.90;;;;;;4999415;28;39184;-79
2023/08/19 04:26:17;;;;;;;30.38;27.10;;;22.80;99.90;;;;;;4998147;28;35844;-79
2023/08/19 04:28:44;;;;;;;32.28;24.25;;;22.80;99.90;;;;;;4999863;28;37643;-79
2023/08/19 04:31:11;;;;;;;30.83;26.02;;;22.80;99.90;;;;;;4997415;28;37036;-79
2023/08/19 04:33:38;;;;;;;27.02;24.20;;;22.80;99.90;;;;;;4998098;28;37828;-79
2023/08/19 04:36:04;;;;;;;28.95;25.85;;;22.80;99.90;;;;;;4999034;28;36703;-79
2023/08/19 04:38:31;;;;;;;25.23;22.45;;;22.90;99.90;;;;;;5000929;28;38683;-79
2023/08/19 04:41:01;;;;;;;26.70;23.80;;;22.90;99.90;;;;;;4996218;28;38861;-79
2023/08/19 04:43:27;;;;;;;26.58;23.40;;;22.90;99.90;;;;;;4996214;28;47324;-78
2023/08/19 04:45:56;;;;;;;30.33;23.40;;;22.90;99.90;;;;;;4997446;28;36278;-79
2023/08/19 04:48:23;;;;;;;25.90;23.25;;;22.90;99.90;;;;;;4995021;28;37537;-78
2023/08/19 04:50:49;;;;;;;27.02;22.52;;;22.90;99.90;;;;;;4998703;28;37613;-80
2023/08/19 04:53:15;;;;;;;28.25;23.42;;;22.90;99.90;;;;;;4997254;28;37409;-79
2023/08/19 04:55:42;;;;;;;25.85;23.15;;;22.90;99.90;;;;;;5001162;28;37668;-79
2023/08/19 04:58:08;;;;;;;26.77;23.95;;;22.90;99.90;;;;;;4999167;28;37117;-79
2023/08/19 05:00:35;;;;;;;25.85;23.08;;;22.80;99.90;;;;;;4998607;28;37209;-79
2023/08/19 05:03:02;;;;;;;29.45;23.58;;;22.80;99.90;;;;;;4998930;28;36772;-78
2023/08/19 05:05:29;;;;;;;25.83;23.10;;;22.70;99.90;;;;;;5001462;28;48930;-79
2023/08/19 05:07:55;;;;;;;27.13;22.92;;;22.60;99.90;;;;;;5006468;28;38696;-79
2023/08/19 05:10:21;;;;;;;26.58;22.77;;;22.70;99.90;;;;;;5007065;28;38362;-79
2023/08/19 05:12:48;;;;;;;26.70;23.88;;;22.60;99.90;;;;;;5005904;28;36992;-79
2023/08/19 05:15:14;;;;;;;25.27;22.67;;;22.60;99.90;;;;;;5007794;28;38557;-79
2023/08/19 05:17:43;;;;;;;26.98;23.00;;;22.60;99.90;;;;;;5006047;28;39383;-78
2023/08/19 05:20:09;;;;;;;23.45;20.88;;;22.60;99.90;;;;;;5005343;28;37350;-78
2023/08/19 05:22:35;;;;;;;23.65;21.10;;;22.60;99.90;;;;;;5007195;28;38540;-79
2023/08/19 05:25:02;;;;;;;23.45;21.10;;;22.60;99.90;;;;;;5006224;28;37629;-79
2023/08/19 05:27:29;;;;;;;22.63;20.23;;;22.60;99.90;;;;;;4999312;28;38786;-77
2023/08/19 05:29:55;;;;;;;24.08;21.38;;;22.60;99.90;;;;;;5006598;28;38766;-80
2023/08/19 05:32:21;;;;;;;23.35;20.25;;;22.50;99.90;;;;;;5001816;28;37664;-78
2023/08/19 05:34:47;;;;;;;23.30;21.00;;;22.60;99.90;;;;;;4999542;28;37647;-79
2023/08/19 05:37:13;;;;;;;20.98;18.88;;;22.60;99.90;;;;;;4999369;28;39495;-79
2023/08/19 05:39:39;;;;;;;21.13;19.05;;;22.60;99.90;;;;;;4997816;28;37717;-78
2023/08/19 05:42:06;;;;;;;21.88;19.58;;;22.70;99.90;;;;;;5001780;28;38080;-78
2023/08/19 05:44:32;;;;;;;19.58;17.58;;;22.70;99.90;;;;;;5004890;28;35867;-78
2023/08/19 05:46:58;;;;;;;19.48;17.45;;;22.80;99.90;;;;;;5004674;28;37563;-79
2023/08/19 05:49:24;;;;;;;23.98;19.05;;;22.80;99.90;;;;;;5007972;28;37985;-79
2023/08/19 05:51:51;;;;;;;18.90;17.00;;;22.90;99.90;;;;;;5003983;28;37838;-79
2023/08/19 05:54:17;;;;;;;20.10;16.83;;;23.00;99.90;;;;;;5003816;28;37290;-79
2023/08/19 05:56:43;;;;;;;17.73;15.10;;;23.10;99.90;;;;;;5005116;28;37527;-79
2023/08/19 05:59:09;;;;;;;18.67;16.10;;;23.20;99.90;;;;;;4998475;28;37812;-79
2023/08/19 06:01:35;;;;;;;21.13;17.38;;;23.20;99.90;;;;;;5003559;28;38873;-78
2023/08/19 06:04:01;;;;;;;19.98;16.55;;;23.30;99.90;;;;;;5005785;28;37809;-79
2023/08/19 06:06:27;;;;;;;21.30;17.50;;;23.20;99.90;;;;;;5004879;28;48463;-79
2023/08/19 06:08:53;;;;;;;17.45;15.63;;;23.20;99.90;;;;;;5004023;28;38248;-79
2023/08/19 06:11:20;;;;;;;18.17;15.82;;;23.20;99.90;;;;;;5002651;28;37283;-78
2023/08/19 06:13:46;;;;;;;20.92;16.40;;;23.20;99.90;;;;;;5003600;28;36433;-79
2023/08/19 06:16:12;;;;;;;18.58;16.63;;;23.20;99.90;;;;;;5001894;28;38744;-79
2023/08/19 06:18:39;;;;;;;18.27;15.52;;;23.30;99.90;;;;;;5007740;28;38074;-78
2023/08/19 06:21:06;;;;;;;19.55;15.27;;;23.30;99.90;;;;;;5004381;28;38313;-78
2023/08/19 06:23:32;;;;;;;17.05;15.23;;;23.30;99.90;;;;;;5006421;28;35694;-79
2023/08/19 06:25:58;;;;;;;17.67;14.93;;;23.30;99.90;;;;;;5001794;28;37610;-79
2023/08/19 06:28:24;;;;;;;17.67;15.00;;;23.30;99.90;;;;;;4993629;28;37275;-78
2023/08/19 06:30:51;;;;;;;16.58;14.50;;;23.40;99.90;;;;;;5001994;28;38635;-79
2023/08/19 06:33:18;;;;;;;17.17;15.38;;;23.30;99.90;;;;;;5001250;28;36272;-78
2023/08/19 06:35:48;;;;;;;15.18;13.45;;;23.40;99.90;;;;;;5005484;28;39747;-78
2023/08/19 06:38:23;;;;;;;16.48;14.82;;;23.40;99.90;;;;;;5005113;28;38635;-76
2023/08/19 06:40:56;;;;;;;15.77;13.63;;;23.40;99.90;;;;;;5013629;28;34884;-78
2023/08/19 06:43:26;;;;;;;16.45;14.70;;;23.40;99.90;;;;;;5000010;28;36745;-78
2023/08/19 06:45:56;;;;;;;16.73;14.27;;;23.40;99.90;;;;;;4997912;28;37746;-78
2023/08/19 06:48:26;;;;;;;15.57;14.05;;;23.40;99.90;;;;;;5006007;28;38362;-78
2023/08/19 06:50:53;;;;;;;15.95;13.90;;;23.40;99.90;;;;;;5004183;28;39321;-78
2023/08/19 06:53:20;;;;;;;15.90;14.38;;;23.40;99.90;;;;;;4999557;28;36415;-79
2023/08/19 06:55:59;;;;;;;18.02;15.25;;;23.40;99.90;;;;;;5003891;28;37820;-76
2023/08/19 06:58:28;;;;;;;16.40;14.70;;;23.40;99.90;;;;;;5002144;28;37201;-78
2023/08/19 07:01:00;;;;;;;15.27;13.77;;;23.40;99.90;;;;;;5006625;28;38144;-76
2023/08/19 07:03:32;;;;;;;18.60;14.73;;;23.50;99.90;;;;;;5003402;28;36504;-76
2023/08/19 07:06:02;;;;;;;16.10;13.55;;;23.60;99.90;;;;;;5000682;28;38592;-77
2023/08/19 07:08:30;;;;;;;14.60;12.43;;;23.70;99.90;;;;;;4995936;28;47394;-76
2023/08/19 07:11:00;;;;;;;15.20;12.57;;;23.70;99.90;;;;;;5000811;28;38423;-76
2023/08/19 07:13:28;;;;;;;14.90;12.88;;;23.70;99.90;;;;;;5000587;28;38837;-76
2023/08/19 07:16:03;;;;;;;14.57;12.45;;;23.80;99.90;;;;;;5016264;28;38659;-78
2023/08/19 07:18:38;;;;;;;13.68;11.57;;;23.70;99.90;;;;;;4995583;28;47313;-79
2023/08/19 07:21:07;;;;;;;13.55;11.77;;;23.70;99.90;;;;;;5001026;28;37260;-79
2023/08/19 07:23:34;;;;;;;14.05;12.43;;;23.60;99.90;;;;;;5000372;28;37747;-78
2023/08/19 07:26:00;;;;;;;15.38;12.40;;;23.60;99.90;;;;;;5002015;28;39993;-79
2023/08/19 07:28:29;;;;;;;16.75;12.65;;;23.50;99.90;;;;;;4999594;28;37974;-79
2023/08/19 07:30:55;;;;;;;14.60;12.32;;;23.40;99.90;;;;;;4994330;28;36969;-79
2023/08/19 07:33:21;;;;;;;15.13;12.10;;;23.40;99.90;;;;;;4982687;28;36880;-79
2023/08/19 07:35:48;;;;;;;19.17;14.30;;;23.40;99.90;;;;;;4994034;28;39925;-79
2023/08/19 07:38:14;;;;;;;18.23;13.82;;;23.40;99.90;;;;;;4974699;28;38979;-80
2023/08/19 07:40:40;;;;;;;14.23;12.85;;;23.50;99.90;;;;;;4997010;28;37054;-81
2023/08/19 07:43:06;;;;;;;16.55;14.20;;;23.60;99.90;;;;;;4999579;28;35674;-81
2023/08/19 07:45:33;;;;;;;16.55;13.93;;;23.70;99.90;;;;;;5001112;28;39430;-81
2023/08/19 07:47:59;;;;;;;17.63;14.00;;;23.70;99.90;;;;;;4985539;28;37170;-83
2023/08/19 07:50:26;;;;;;;17.80;14.63;;;23.70;99.90;;;;;;4997945;28;37892;-82
2023/08/19 07:52:52;;;;;;;20.17;14.73;;;23.70;99.90;;;;;;4992821;28;36526;-83
2023/08/19 07:55:19;;;;;;;21.42;16.25;;;23.60;99.90;;;;;;5005276;28;37982;-84
2023/08/19 07:57:45;;;;;;;18.40;15.55;;;23.50;99.90;;;;;;5005278;28;39070;-81
2023/08/19 08:00:11;;;;;;;17.70;15.80;;;23.50;99.90;;;;;;4999607;28;38271;-81
2023/08/19 08:02:37;;;;;;;19.70;16.33;;;23.70;99.90;;;;;;4999470;28;36764;-81
2023/08/19 08:05:04;;;;;;;21.27;16.00;;;23.90;99.90;;;;;;5003292;28;38487;-80
2023/08/19 08:07:30;;;;;;;19.95;14.98;;;24.20;99.90;;;;;;5000656;28;38205;-78
2023/08/19 08:09:56;;;;;;;17.63;15.30;;;24.50;99.90;;;;;;4997470;28;37288;-86
2023/08/19 08:12:22;;;;;;;18.15;15.25;;;24.80;99.90;;;;;;4992511;28;36285;-83
2023/08/19 08:14:50;;;;;;;20.02;13.45;;;24.90;99.90;;;;;;5001217;28;20557;-84
2023/08/19 08:17:16;;;;;;;18.52;13.65;;;25.10;99.90;;;;;;4995545;28;37860;-82
2023/08/19 08:19:42;;;;;;;15.75;12.73;;;25.30;99.90;;;;;;5001269;28;34697;-83
2023/08/19 08:22:09;;;;;;;14.90;11.75;;;25.60;99.90;;;;;;4997030;28;37536;-83
2023/08/19 08:24:35;;;;;;;13.07;11.15;;;25.80;99.90;;;;;;5003414;28;37952;-83
2023/08/19 08:27:01;;;;;;;15.60;10.82;;;25.80;99.90;;;;;;5012148;28;35970;-88
2023/08/19 08:29:27;;;;;;;12.77;9.35;;;25.90;99.90;;;;;;5012655;28;47749;-87
2023/08/19 08:31:53;;;;;;;10.93;8.82;;;26.00;99.90;;;;;;4995622;28;35536;-83
2023/08/19 08:34:19;;;;;;;12.02;8.55;;;26.10;99.90;;;;;;4998310;28;39045;-83
2023/08/19 08:36:46;;;;;;;10.77;7.75;;;25.90;99.90;;;;;;4990927;28;39226;-80
2023/08/19 08:39:12;;;;;;;7.70;6.18;;;25.90;99.90;;;;;;4982100;28;36368;-81
2023/08/19 08:41:39;;;;;;;5.07;4.32;;;25.80;99.90;;;;;;4991123;28;37354;-80
2023/08/19 08:44:09;;;;;;;5.97;4.40;;;25.70;99.90;;;;;;4995374;28;38436;-82
2023/08/19 08:46:36;;;;;;;5.30;4.07;;;25.80;99.90;;;;;;4988613;28;38642;-82
2023/08/19 08:49:05;;;;;;;4.88;4.35;;;25.90;99.90;;;;;;4985809;28;37125;-82
2023/08/19 08:51:31;;;;;;;5.13;3.40;;;25.90;99.90;;;;;;4983855;28;35763;-79
2023/08/19 08:54:00;;;;;;;4.72;3.80;;;25.90;99.90;;;;;;4985529;28;37464;-83
2023/08/19 08:56:26;;;;;;;5.00;3.35;;;25.70;99.90;;;;;;4991673;28;37145;-81
2023/08/19 08:58:54;;;;;;;5.28;3.50;;;25.60;99.90;;;;;;4980429;28;38883;-83
2023/08/19 09:01:22;;;;;;;4.70;3.50;;;25.50;99.90;;;;;;4976689;28;35925;-82
2023/08/19 09:03:51;;;;;;;3.42;3.13;;;25.50;99.90;;;;;;4989524;28;39139;-83
2023/08/19 09:06:17;;;;;;;3.50;3.20;;;25.80;99.90;;;;;;4988317;28;38602;-82
2023/08/19 09:08:56;;;;;;;3.90;3.25;;;25.90;99.90;;;;;;4994350;28;38887;-83
2023/08/19 09:11:25;;;;;;;5.07;3.65;;;25.80;99.90;;;;;;4992734;28;35988;-79
2023/08/19 09:14:15;;;;;;;4.47;3.80;;;25.70;99.90;;;;;;4992282;28;37887;-82
2023/08/19 09:16:41;;;;;;;4.95;4.07;;;25.70;99.90;;;;;;4966081;28;47211;-83
2023/08/19 09:19:07;;;;;;;6.80;4.07;;;25.50;99.90;;;;;;4991459;28;40430;-83
2023/08/19 09:21:34;;;;;;;5.97;4.13;;;25.30;99.90;;;;;;4992357;28;38015;-83
2023/08/19 09:24:00;;;;;;;4.50;4.05;;;25.10;99.90;;;;;;4989213;28;39209;-82
2023/08/19 09:26:26;;;;;;;6.63;4.38;;;25.10;99.90;;;;;;4988068;28;38506;-82
2023/08/19 09:28:59;;;;;;;5.88;3.67;;;25.00;99.90;;;;;;4978790;28;37190;-78
2023/08/19 09:31:25;;;;;;;6.55;3.97;;;25.10;99.90;;;;;;4999031;28;35463;-77
2023/08/19 09:33:52;;;;;;;3.28;2.83;;;25.20;99.90;;;;;;4995281;28;39336;-76
2023/08/19 09:36:23;;;;;;;5.55;4.10;;;25.40;99.90;;;;;;4986471;28;38102;-75
2023/08/19 09:38:57;;;;;;;4.70;4.20;;;26.00;99.90;;;;;;4979506;28;37264;-76
2023/08/19 09:41:27;;;;;;;7.43;4.80;;;25.90;99.90;;;;;;4985029;28;38508;-77
2023/08/19 09:43:55;;;;;;;9.40;5.88;;;25.70;99.90;;;;;;4985405;28;37799;-76
2023/08/19 09:46:28;;;;;;;11.57;8.57;;;25.40;99.90;;;;;;4982063;28;37120;-80
2023/08/19 09:48:56;;;;;;;12.02;8.00;;;25.20;99.90;;;;;;4990430;28;41271;-78
2023/08/19 09:51:26;;;;;;;10.45;6.63;;;24.90;99.90;;;;;;4983887;28;37111;-78
2023/08/19 09:53:56;;;;;;;9.20;5.82;;;24.60;99.90;;;;;;4982199;28;38943;-76
2023/08/19 09:56:25;;;;;;;10.27;6.07;;;24.30;99.90;;;;;;4986102;28;39493;-75
2023/08/19 09:58:54;;;;;;;9.98;6.97;;;24.20;99.90;;;;;;4981238;28;38105;-76
2023/08/19 10:01:22;;;;;;;10.82;6.18;;;24.20;99.90;;;;;;4991198;28;37358;-77
2023/08/19 10:03:49;;;;;;;9.18;6.13;;;24.30;99.90;;;;;;4976956;28;38779;-77
2023/08/19 10:06:26;;;;;;;9.68;6.90;;;24.50;99.90;;;;;;4976965;28;37433;-77
2023/08/19 10:08:59;;;;;;;10.85;7.40;;;24.80;99.90;;;;;;4976977;28;36306;-77
2023/08/19 10:11:29;;;;;;;13.05;8.23;;;24.90;99.90;;;;;;4978288;28;35801;-77
2023/08/19 10:14:00;;;;;;;10.40;7.85;;;24.90;99.90;;;;;;4979255;28;38355;-77
2023/08/19 10:16:28;;;;;;;14.18;9.95;;;25.00;99.90;;;;;;4982990;28;36841;-76
2023/08/19 10:18:55;;;;;;;13.52;9.20;;;25.00;99.90;;;;;;5007941;28;37478;-77
2023/08/19 10:21:23;;;;;;;16.33;9.90;;;24.90;99.90;;;;;;4988897;28;36144;-77
2023/08/19 10:23:50;;;;;;;13.98;7.65;;;25.10;99.90;;;;;;4982701;28;39433;-77
2023/08/19 10:26:18;;;;;;;17.63;9.02;;;25.50;99.90;;;;;;4989736;28;37768;-77
2023/08/19 10:29:05;;;;;;;14.93;7.93;;;25.50;99.90;;;;;;4992887;28;38324;-77
2023/08/19 10:31:32;;;;;;;10.10;6.15;;;25.00;99.90;;;;;;4983730;28;48531;-77
2023/08/19 10:33:58;;;;;;;12.55;6.50;;;24.90;99.90;;;;;;4981882;28;39287;-78
2023/08/19 10:36:32;;;;;;;14.68;7.45;;;24.80;99.90;;;;;;4978986;28;37209;-77
2023/08/19 10:39:00;;;;;;;10.10;5.60;;;24.70;99.90;;;;;;4988252;28;38067;-77
2023/08/19 10:41:30;;;;;;;8.38;4.32;;;24.70;99.90;;;;;;4998845;28;34689;-81
2023/08/19 10:44:27;;;;;;;5.70;4.13;;;24.50;99.90;;;;;;4995837;28;37975;-80
2023/08/19 10:47:13;;;;;;;6.40;2.90;;;24.30;99.90;;;;;;4998148;28;47078;-81
2023/08/19 10:49:40;;;;;;;7.15;2.90;;;24.00;99.90;;;;;;5005746;28;48822;-80
2023/08/19 10:52:06;;;;;;;5.60;2.53;;;23.90;99.90;;;;;;5004254;28;36437;-80
2023/08/19 10:54:40;;;;;;;9.73;2.92;;;23.90;99.90;;;;;;5001316;28;39750;-79
2023/08/19 10:57:38;;;;;;;5.45;3.13;;;23.90;99.90;;;;;;4994760;28;37715;-81
2023/08/19 11:00:07;;;;;;;9.90;3.55;;;23.90;99.90;;;;;;4987163;28;36926;-80
2023/08/19 11:02:33;;;;;;;14.73;4.30;;;23.90;99.90;;;;;;5002590;28;36631;-82
2023/08/19 11:05:03;;;;;;;13.90;3.72;;;23.80;99.90;;;;;;5001671;28;37758;-82
2023/08/19 11:07:29;;;;;;;14.13;3.15;;;23.90;99.90;;;;;;5004993;28;47089;-81
2023/08/19 11:09:55;;;;;;;10.30;2.78;;;24.00;99.90;;;;;;5001967;28;39530;-79
2023/08/19 11:12:22;;;;;;;6.53;2.00;;;24.00;99.90;;;;;;4996218;28;36763;-81
2023/08/19 11:14:55;;;;;;;7.45;1.70;;;23.90;99.90;;;;;;4996335;28;39176;-78
2023/08/19 11:17:41;;;;;;;7.65;1.85;;;23.50;99.90;;;;;;5001671;28;37552;-78
2023/08/19 11:20:12;;;;;;;7.03;1.90;;;23.20;99.90;;;;;;5003307;28;38703;-79
2023/08/19 11:22:46;;;;;;;8.75;2.05;;;23.20;99.90;;;;;;4999734;28;37110;-79
2023/08/19 11:25:13;;;;;;;4.70;1.52;;;23.20;99.90;;;;;;5004107;28;38822;-79
2023/08/19 11:27:39;;;;;;;10.10;2.30;;;23.10;99.90;;;;;;4995360;28;39314;-79
2023/08/19 11:30:08;;;;;;;10.60;2.63;;;22.90;99.90;;;;;;4999084;28;40678;-77
2023/08/19 11:32:35;;;;;;;12.23;2.50;;;22.70;99.90;;;;;;5000989;28;47204;-78
2023/08/19 11:35:01;;;;;;;10.30;3.03;;;22.40;99.90;;;;;;5004984;28;40626;-78
2023/08/19 11:37:28;;;;;;;10.40;3.00;;;22.30;99.90;;;;;;5000573;28;38204;-79
2023/08/19 11:39:55;;;;;;;13.57;3.35;;;22.20;99.90;;;;;;4995735;28;36904;-79
2023/08/19 11:42:21;;;;;;;14.10;2.72;;;22.20;99.90;;;;;;4999269;28;36438;-77
2023/08/19 11:44:48;;;;;;;14.23;2.92;;;22.20;99.90;;;;;;5000403;28;37543;-79
2023/08/19 11:47:14;;;;;;;16.17;3.25;;;22.10;99.90;;;;;;5003770;28;39986;-78
2023/08/19 11:49:44;;;;;;;13.25;2.58;;;22.00;99.90;;;;;;4996689;28;39339;-79
2023/08/19 11:52:18;;;;;;;11.35;2.65;;;22.10;99.90;;;;;;4996027;28;35884;-76
2023/08/19 11:55:00;;;;;;;13.60;3.13;;;22.00;99.90;;;;;;4999001;28;36560;-76
2023/08/19 11:57:35;;;;;;;13.57;3.60;;;22.00;99.90;;;;;;4995962;28;38618;-77
2023/08/19 12:00:04;;;;;;;18.55;3.40;;;21.90;99.90;;;;;;5000105;28;36690;-77
2023/08/19 12:02:30;;;;;;;15.00;3.65;;;21.80;99.90;;;;;;4987789;28;36407;-77
2023/08/19 12:04:57;;;;;;;20.58;3.83;;;21.90;99.90;;;;;;4989574;28;39653;-77
2023/08/19 12:07:28;;;;;;;18.38;3.30;;;21.90;99.90;;;;;;4991764;28;37133;-77
2023/08/19 12:09:58;;;;;;;11.38;2.70;;;21.90;99.90;;;;;;4989818;28;37459;-77
2023/08/19 12:12:24;;;;;;;14.07;3.00;;;21.80;99.90;;;;;;4990121;28;37336;-77
2023/08/19 12:14:51;;;;;;;15.20;3.78;;;21.70;99.90;;;;;;5006544;28;37666;-78
2023/08/19 12:17:18;;;;;;;20.95;3.42;;;21.70;99.90;;;;;;5001250;28;37538;-78
2023/08/19 12:19:47;;;;;;;15.73;3.03;;;21.60;99.90;;;;;;5001413;28;38046;-77
2023/08/19 12:22:14;;;;;;;15.70;3.05;;;21.50;99.90;;;;;;5002823;28;35955;-77
2023/08/19 12:24:43;;;;;;;15.38;3.60;;;21.30;99.90;;;;;;5005454;28;39694;-77
2023/08/19 12:27:09;;;;;;;17.25;3.03;;;21.30;99.90;;;;;;5004022;28;38972;-77
2023/08/19 12:29:36;;;;;;;15.55;2.78;;;21.30;99.90;;;;;;5000106;28;36856;-77
2023/08/19 12:32:02;;;;;;;18.35;3.35;;;21.30;99.90;;;;;;5008848;28;37321;-77
2023/08/19 12:34:29;;;;;;;12.57;2.90;;;21.30;99.90;;;;;;5007082;28;38940;-77